PHKOPHBK

Guest
Details From PHKO - Kona Intl At Keahole
To PHBK - BARKING SANDS PMRF
Flight Number -
Tags generated
Created
Modified
Stats Distance 253 nm / 469 km
Max Altitude 30,500 ft / 9,296 m
Waypoints 7
Social Downloads 0
Likes 0
Share VATSIM

Download

Looking for another format? Having issues loading an existing format? Contact us
Advertisement - Login to hide

Notes

Basic altitude profile: - Ascent Rate: 2000ft/min - Ascent Speed: 210kts - Cruise Altitude: 18000ft - Cruise Speed: 320kts - Descent Rate: 900ft/min - Descent Speed: 230kts Options: - Use NATs: yes - Use PACOTS: yes - Use low airways: yes - Use high airways: yes

Route

PHKO JORDA V20 JULLE V16 GECKO PHBK

ID Type Via Altitude Latitude Longitude Leg Dist Tot Dist Heading (true) Name
O PHKO APT - 0 ft / 0 m 19.73934˚ -156.04576˚ - 0 nm - Kona Intl At Keahole
JORDA FIX - 30,500 ft / 9,296 m 20.65963˚ -157.26618˚ 88 nm 88 nm 309° / 309° -
JULLE FIX V20 (AWY-HI) 28,900 ft / 8,809 m 20.95994˚ -157.57647˚ 25 nm 113 nm 316° / 316° -
ALANA FIX V16 (AWY-HI) 24,300 ft / 7,407 m 21.07533˚ -157.93909˚ 21 nm 134 nm 289° / 289° -
OPIHI FIX V16 (AWY-HI) 24,500 ft / 7,468 m 21.09585˚ -158.00397˚ 3 nm 138 nm 289° / 289° -
GECKO FIX V16 (AWY-HI) 20,600 ft / 6,279 m 21.19225˚ -158.30978˚ 18 nm 156 nm 289° / 289° -
O PHBK APT - 0 ft / 0 m 22.02277˚ -159.78506˚ 96 nm 253 nm 301° / 301° BARKING SANDS PMRF

Altitude Profile

Advertisement - Login to hide

Weather


0- 5 10 15 20 25 30 35+ Temperature / ° C

Clouds and Precipitation
Forecast for 2018-05-22 00:00 UTC. Updated 6 hours ago

Ground ~20,000 ft ~40,000 ft Winds

PHKO

Details ICAO PHKO (KOA)
Name Kona Intl At Keahole
Region USA (Hawaii)
Timezone Pacific/Honolulu (UTC-10.0)
Stats Elevation 45 ft / 14 m (AMSL)
Location 19.739343° -156.045756°
Runways 1
Magnetic Variation 9.423° E

METAR

PHKO 220453Z 17009KT 10SM BKN049 27/19 A2998

Decode

TAF

TAF PHKO 212320Z 2200/2224 26009KT P6SM SCT040 SCT060 FM220600 12005KT P6SM BKN060 FM222000 26008KT P6SM SCT040 SCT060

Decode

Departure Runways

ID Width Length Bearing (true) Bearing (mag) Surface Threshold Offset Overrun Length
17 150 ft / 46 m 11,461 ft / 3,493 m 184.77° 175.35° Asphalt 407 ft / 124 m 0 ft / 0 m
35 150 ft / 46 m 11,461 ft / 3,493 m 4.77° 355.35° Asphalt 0 ft / 0 m 404 ft / 123 m

PHBK

Details ICAO PHBK (BKH)
Name BARKING SANDS PMRF
Region USA (Hawaii)
Timezone Pacific/Honolulu (UTC-10.0)
Stats Elevation 23 ft / 7 m (AMSL)
Location 22.022773° -159.785060°
Runways 1
Magnetic Variation 9.420° E

METAR

PHBK 220456Z AUTO 35005KT 10SM CLR 24/19 A3005 RMK AO2 SLP178 T02440194

Decode

TAF

Not found

Destination Runways

ID Width Length Bearing (true) Bearing (mag) Surface Threshold Offset Overrun Length
16 151 ft / 46 m 6,006 ft / 1,831 m 170.05° 160.63° Asphalt 0 ft / 0 m 98 ft / 30 m
34 151 ft / 46 m 6,006 ft / 1,831 m 350.05° 340.63° Asphalt 0 ft / 0 m 98 ft / 30 m

Popular Alternatives